Terminal Aerodrome Forecast
Issued by NWS Knoxville/Tri Cities, TN

Home | Current Version | Previous Version | Text Only | Print | Product List | Glossary On
Versions: 1 2 3 4 5 6 7 8 9 10 11 12 13 14 15
000
FTUS44 KMRX 220347 AAA
TAFTYS
TAF AMD
KTYS 220347Z 2204/2224 36005KT P6SM BKN250
     FM220600 05004KT 4SM BR SCT020 BKN060
     FM220900 06007KT 3SM -TSRA BR BKN015CB
     FM221300 21008KT 6SM -SHRA BR BKN020=

USA.gov is the U.S. government's official web portal to all federal, state and local government web resources and services.